createdAt,value
2023-02-06T00:00:47.345Z,66.71
2023-02-06T00:04:10.808Z,66.77
2023-02-06T00:07:14.125Z,66.82
2023-02-06T00:10:17.654Z,66.89
2023-02-06T00:13:21.336Z,66.90
2023-02-06T00:16:34.011Z,66.87
2023-02-06T00:19:38.308Z,66.82
2023-02-06T00:22:41.574Z,66.85
2023-02-06T00:25:45.062Z,66.92
2023-02-06T00:28:48.695Z,66.99
2023-02-06T00:31:52.028Z,66.99
2023-02-06T00:34:55.465Z,67.04
2023-02-06T00:38:00.206Z,67.10
2023-02-06T00:41:04.198Z,67.11
2023-02-06T00:44:07.869Z,67.11
2023-02-06T00:47:11.214Z,67.13
2023-02-06T00:50:14.529Z,67.18
2023-02-06T00:53:20.144Z,67.27
2023-02-06T00:56:23.491Z,67.33
2023-02-06T00:59:26.857Z,67.31
2023-02-06T01:02:30.226Z,67.27
2023-02-06T01:05:35.545Z,67.28
2023-02-06T01:08:39.138Z,67.32
2023-02-06T01:11:42.412Z,67.27
2023-02-06T01:14:49.625Z,67.24
2023-02-06T01:17:52.913Z,67.23
2023-02-06T01:20:56.204Z,67.23
2023-02-06T01:23:59.668Z,67.32
2023-02-06T01:27:05.806Z,67.34
2023-02-06T01:30:10.305Z,67.39
2023-02-06T01:33:13.957Z,67.41
2023-02-06T01:36:19.443Z,67.45
2023-02-06T01:39:22.677Z,67.46
2023-02-06T01:42:26.284Z,67.43
2023-02-06T01:45:42.052Z,67.50
2023-02-06T01:48:51.191Z,67.53
2023-02-06T01:52:01.459Z,67.52
2023-02-06T01:55:05.398Z,67.56
2023-02-06T01:58:11.691Z,67.63
2023-02-06T02:01:16.111Z,67.66
2023-02-06T02:04:23.468Z,67.68
2023-02-06T02:07:32.436Z,67.67
2023-02-06T02:10:35.694Z,67.69
2023-02-06T02:13:39.854Z,67.71
2023-02-06T02:17:04.566Z,67.74
2023-02-06T02:20:54.894Z,67.77
2023-02-06T02:24:39.311Z,67.87
2023-02-06T02:27:53.239Z,67.92
2023-02-06T02:31:20.162Z,67.93
2023-02-06T02:34:48.010Z,67.93
2023-02-06T02:37:56.217Z,67.97
2023-02-06T02:41:11.643Z,67.99
2023-02-06T02:44:34.559Z,67.98
2023-02-06T02:47:52.886Z,67.96
2023-02-06T02:51:00.259Z,67.93
2023-02-06T02:54:04.012Z,67.99
2023-02-06T02:57:18.052Z,68.05
2023-02-06T03:00:25.137Z,68.13
2023-02-06T03:03:32.569Z,68.17
2023-02-06T03:06:54.211Z,68.23
2023-02-06T03:10:15.093Z,68.23
2023-02-06T03:13:32.552Z,68.25
2023-02-06T03:16:45.996Z,68.29
2023-02-06T03:19:55.514Z,68.32
2023-02-06T03:23:01.175Z,68.34
2023-02-06T03:26:10.282Z,68.36
2023-02-06T03:29:16.910Z,68.39
2023-02-06T03:32:25.215Z,68.42
2023-02-06T03:35:36.170Z,68.40
2023-02-06T03:38:40.136Z,68.35
2023-02-06T03:41:46.228Z,68.36
2023-02-06T03:44:57.129Z,68.35
2023-02-06T03:48:10.977Z,68.33
2023-02-06T03:51:29.300Z,68.35
2023-02-06T03:54:35.980Z,68.38
2023-02-06T03:57:41.901Z,68.34
2023-02-06T04:00:46.794Z,68.38
2023-02-06T04:03:50.125Z,68.40
2023-02-06T04:06:53.460Z,68.44
2023-02-06T04:09:56.761Z,68.53
2023-02-06T04:13:02.848Z,68.60
2023-02-06T04:16:06.222Z,68.67
2023-02-06T04:19:09.589Z,68.66
2023-02-06T04:22:15.361Z,68.64
2023-02-06T04:25:18.938Z,68.63
2023-02-06T04:28:22.369Z,68.63
2023-02-06T04:31:25.922Z,68.63
2023-02-06T04:34:29.912Z,68.59
2023-02-06T04:37:33.324Z,68.52
2023-02-06T04:40:37.507Z,68.51
2023-02-06T04:43:40.751Z,68.43
2023-02-06T04:46:44.819Z,68.42
2023-02-06T04:49:48.241Z,68.46
2023-02-06T04:52:51.777Z,68.49
2023-02-06T04:56:02.552Z,68.54
2023-02-06T04:59:06.304Z,68.58
2023-02-06T05:02:09.658Z,68.64
2023-02-06T05:05:13.027Z,68.70
2023-02-06T05:08:16.352Z,68.79
2023-02-06T05:11:19.808Z,68.83
2023-02-06T05:14:23.377Z,68.86
2023-02-06T05:17:26.786Z,68.92
2023-02-06T05:20:30.447Z,68.93
2023-02-06T05:23:33.811Z,68.92
2023-02-06T05:26:37.093Z,68.94
2023-02-06T05:29:40.448Z,68.97
2023-02-06T05:32:43.987Z,68.94
2023-02-06T05:35:47.537Z,68.97
2023-02-06T05:38:51.037Z,68.98
2023-02-06T05:41:54.397Z,69.03
2023-02-06T05:44:58.009Z,69.07
2023-02-06T05:48:01.443Z,69.10
2023-02-06T05:51:04.925Z,69.15
2023-02-06T05:54:08.712Z,69.21
2023-02-06T05:57:12.263Z,69.23
2023-02-06T06:00:16.894Z,69.29
2023-02-06T06:03:20.447Z,69.33
2023-02-06T06:06:23.858Z,69.37
2023-02-06T06:09:27.179Z,69.43
2023-02-06T06:12:30.665Z,69.51
2023-02-06T06:15:34.745Z,69.55
2023-02-06T06:18:38.310Z,69.60
2023-02-06T06:21:41.742Z,69.62
2023-02-06T06:24:45.123Z,69.59
2023-02-06T06:27:48.450Z,69.56
2023-02-06T06:30:52.115Z,69.55
2023-02-06T06:33:55.394Z,69.50
2023-02-06T06:36:58.726Z,69.43
2023-02-06T06:40:02.112Z,69.39
2023-02-06T06:43:05.473Z,69.39
2023-02-06T06:46:08.984Z,69.38
2023-02-06T06:49:12.209Z,69.41
2023-02-06T06:52:24.483Z,69.40
2023-02-06T06:55:28.374Z,69.35
2023-02-06T06:58:31.908Z,69.29
2023-02-06T07:08:59.778Z,69.08
2023-02-06T07:12:03.192Z,69.08
2023-02-06T07:15:07.491Z,69.14
2023-02-06T07:18:11.802Z,69.04
2023-02-06T07:21:16.040Z,68.93
2023-02-06T07:24:19.651Z,68.86
2023-02-06T07:27:22.919Z,68.75
2023-02-06T07:30:26.353Z,68.66
2023-02-06T07:33:30.049Z,68.52
2023-02-06T07:36:33.411Z,68.46
2023-02-06T07:39:36.896Z,68.39
2023-02-06T07:42:40.527Z,68.36
2023-02-06T07:46:05.316Z,68.29
2023-02-06T07:49:08.624Z,68.27
2023-02-06T07:52:11.823Z,68.18
2023-02-06T07:55:15.148Z,68.16
2023-02-06T07:58:20.612Z,68.16
2023-02-06T08:01:24.147Z,68.09
2023-02-06T08:04:29.505Z,67.99
2023-02-06T08:07:33.332Z,67.88
2023-02-06T08:10:39.864Z,67.82
2023-02-06T08:13:44.013Z,67.79
2023-02-06T08:16:50.795Z,67.66
2023-02-06T08:19:54.579Z,67.57
2023-02-06T08:22:58.059Z,67.42
2023-02-06T08:26:03.550Z,67.32
2023-02-06T08:29:08.113Z,67.23
2023-02-06T08:32:12.363Z,67.12
2023-02-06T08:35:15.799Z,67.02
2023-02-06T08:38:19.063Z,66.84
2023-02-06T08:41:25.755Z,66.76
2023-02-06T08:44:29.702Z,66.64
2023-02-06T08:47:33.055Z,66.52
2023-02-06T08:50:36.629Z,66.47
2023-02-06T08:53:40.232Z,66.38
2023-02-06T08:56:43.593Z,66.27
2023-02-06T08:59:47.050Z,66.19
2023-02-06T09:02:53.404Z,66.06
2023-02-06T09:06:09.432Z,65.88
2023-02-06T09:09:13.415Z,65.87
2023-02-06T09:12:16.778Z,65.72
2023-02-06T09:15:20.173Z,65.29
2023-02-06T09:18:23.499Z,65.04
2023-02-06T09:21:28.898Z,64.55
2023-02-06T09:24:32.350Z,64.33
2023-02-06T09:27:36.449Z,64.07
2023-02-06T09:30:39.796Z,63.84
2023-02-06T09:33:43.063Z,63.43
2023-02-06T09:36:46.478Z,63.47
2023-02-06T09:39:49.668Z,63.50
2023-02-06T09:42:54.440Z,63.20
2023-02-06T09:46:06.020Z,62.86
2023-02-06T09:49:21.176Z,62.53
2023-02-06T09:52:26.995Z,62.37
2023-02-06T09:55:41.384Z,62.10
2023-02-06T09:58:52.723Z,62.01
2023-02-06T10:01:59.173Z,61.93
2023-02-06T10:05:19.649Z,61.34
2023-02-06T10:08:38.301Z,61.03
2023-02-06T10:11:48.383Z,60.41
2023-02-06T10:15:00.478Z,60.38
2023-02-06T10:18:16.994Z,60.12
2023-02-06T10:21:32.530Z,60.14
2023-02-06T10:25:02.305Z,59.55
2023-02-06T10:28:23.221Z,59.23
2023-02-06T10:31:26.868Z,59.23
2023-02-06T10:34:51.069Z,58.71
2023-02-06T10:38:32.914Z,58.40
2023-02-06T10:41:45.629Z,58.19
2023-02-06T10:45:17.440Z,57.74
2023-02-06T10:48:39.154Z,58.02
2023-02-06T10:51:49.372Z,57.66
2023-02-06T10:54:57.333Z,57.89
2023-02-06T10:58:15.673Z,57.65
2023-02-06T11:01:26.446Z,57.58
2023-02-06T11:04:42.478Z,57.50
2023-02-06T11:07:50.320Z,57.19
2023-02-06T11:10:56.081Z,57.19
2023-02-06T11:14:06.067Z,57.20
2023-02-06T11:17:11.581Z,56.51
2023-02-06T11:20:28.380Z,56.10
2023-02-06T11:23:34.720Z,56.41
2023-02-06T11:26:51.180Z,56.46
2023-02-06T11:29:55.181Z,55.99
2023-02-06T11:33:04.964Z,56.00
2023-02-06T11:36:27.213Z,55.44
2023-02-06T11:39:30.699Z,55.61
2023-02-06T11:42:36.042Z,54.88
2023-02-06T11:45:41.046Z,54.93
2023-02-06T11:48:47.537Z,54.92
2023-02-06T11:52:03.893Z,54.97
2023-02-06T11:55:23.461Z,54.92
2023-02-06T11:58:29.063Z,54.89
2023-02-06T12:01:44.102Z,54.93
2023-02-06T12:04:48.342Z,54.92
2023-02-06T12:08:16.240Z,54.78
2023-02-06T12:11:23.633Z,54.73
2023-02-06T12:14:36.130Z,54.61
2023-02-06T12:17:40.932Z,54.31
2023-02-06T12:21:16.498Z,54.92
2023-02-06T12:24:43.463Z,54.36
2023-02-06T12:27:46.922Z,54.43
2023-02-06T12:31:03.621Z,54.24
2023-02-06T12:34:25.311Z,54.36
2023-02-06T12:37:41.244Z,54.28
2023-02-06T12:40:47.352Z,54.17
2023-02-06T12:43:59.954Z,54.17
2023-02-06T12:47:21.777Z,54.34
2023-02-06T12:50:39.541Z,54.16
2023-02-06T12:54:18.734Z,54.30
2023-02-06T12:57:28.399Z,54.49
2023-02-06T13:01:04.753Z,54.29
2023-02-06T13:04:23.895Z,54.34
2023-02-06T13:07:28.325Z,54.38
2023-02-06T13:10:34.319Z,54.43
2023-02-06T13:13:43.006Z,54.44
2023-02-06T13:16:51.190Z,54.48
2023-02-06T13:20:13.444Z,54.60
2023-02-06T13:23:23.340Z,54.48
2023-02-06T13:26:48.005Z,54.50
2023-02-06T13:29:54.075Z,54.78
2023-02-06T13:33:20.164Z,54.80
2023-02-06T13:36:41.730Z,55.15
2023-02-06T13:39:48.605Z,55.14
2023-02-06T13:43:10.548Z,55.37
2023-02-06T13:46:24.714Z,55.37
2023-02-06T13:50:15.745Z,55.69
2023-02-06T13:53:32.434Z,55.65
2023-02-06T13:56:59.896Z,55.78
2023-02-06T14:00:20.479Z,55.98
2023-02-06T14:03:31.595Z,56.04
2023-02-06T14:06:56.904Z,56.18
2023-02-06T14:10:15.398Z,56.36
2023-02-06T14:14:02.634Z,56.44
2023-02-06T14:17:33.342Z,56.48
2023-02-06T14:21:15.241Z,56.65
2023-02-06T14:24:26.163Z,56.79
2023-02-06T14:27:32.410Z,56.91
2023-02-06T14:30:55.947Z,56.89
2023-02-06T14:34:10.806Z,56.97
2023-02-06T14:37:23.320Z,57.08
2023-02-06T14:40:30.116Z,57.18
2023-02-06T14:43:38.094Z,57.27
2023-02-06T14:47:37.609Z,57.26
2023-02-06T14:51:34.206Z,57.28
2023-02-06T14:54:38.777Z,57.40
2023-02-06T14:57:45.559Z,57.45
2023-02-06T15:00:48.874Z,57.56
2023-02-06T15:03:52.935Z,57.56
2023-02-06T15:07:00.106Z,57.57
2023-02-06T15:10:06.905Z,57.62
2023-02-06T15:13:36.401Z,57.75
2023-02-06T15:16:50.598Z,57.74
2023-02-06T15:19:54.066Z,57.79
2023-02-06T15:23:16.594Z,57.84
2023-02-06T15:26:50.537Z,57.91
2023-02-06T15:29:54.570Z,57.97
2023-02-06T15:32:57.853Z,58.15
2023-02-06T15:36:04.446Z,58.27
2023-02-06T15:39:09.740Z,58.46
2023-02-06T15:42:13.164Z,58.52
2023-02-06T15:45:28.831Z,58.83
2023-02-06T15:48:47.316Z,58.91
2023-02-06T15:51:54.971Z,58.93
2023-02-06T15:54:59.307Z,59.04
2023-02-06T15:58:05.244Z,59.14
2023-02-06T16:01:19.328Z,59.31
2023-02-06T16:04:32.524Z,59.38
2023-02-06T16:07:36.640Z,59.45
2023-02-06T16:10:41.031Z,59.55
2023-02-06T16:13:46.069Z,59.56
2023-02-06T16:17:01.564Z,59.55
2023-02-06T16:20:24.582Z,59.69
2023-02-06T16:23:29.799Z,59.87
2023-02-06T16:26:49.749Z,59.92
2023-02-06T16:29:56.291Z,59.84
2023-02-06T16:33:08.967Z,59.85
2023-02-06T16:36:14.214Z,59.94
2023-02-06T16:39:17.405Z,60.17
2023-02-06T16:42:23.221Z,60.26
2023-02-06T16:45:28.065Z,60.34
2023-02-06T16:48:31.259Z,60.44
2023-02-06T16:51:35.145Z,60.49
2023-02-06T16:54:38.630Z,60.55
2023-02-06T16:57:45.060Z,60.68
2023-02-06T17:00:48.985Z,60.81
2023-02-06T17:03:59.182Z,60.83
2023-02-06T17:07:04.873Z,60.89
2023-02-06T17:13:30.313Z,61.09
2023-02-06T17:16:34.329Z,61.13
2023-02-06T17:19:41.728Z,61.24
2023-02-06T17:22:45.036Z,61.33
2023-02-06T17:25:51.125Z,61.45
2023-02-06T17:28:54.823Z,61.55
2023-02-06T17:31:59.903Z,61.63
2023-02-06T17:35:03.280Z,61.64
2023-02-06T17:38:08.616Z,61.72
2023-02-06T17:41:11.951Z,61.75
2023-02-06T17:44:18.011Z,61.74
2023-02-06T17:47:21.317Z,61.67
2023-02-06T17:50:26.923Z,61.78
2023-02-06T17:53:30.179Z,61.82
2023-02-06T17:56:34.645Z,61.87
2023-02-06T17:59:37.907Z,61.91
2023-02-06T18:02:41.218Z,61.95
2023-02-06T18:05:45.046Z,61.99
2023-02-06T18:08:48.348Z,62.01
2023-02-06T18:11:51.471Z,62.01
2023-02-06T18:14:54.939Z,61.98
2023-02-06T18:17:59.675Z,61.99
2023-02-06T18:21:02.809Z,62.06
2023-02-06T18:24:06.443Z,62.09
2023-02-06T18:27:10.741Z,62.11
2023-02-06T18:30:15.481Z,62.14
2023-02-06T18:33:18.676Z,62.24
2023-02-06T18:36:23.228Z,62.34
2023-02-06T18:39:26.538Z,62.40
2023-02-06T18:42:48.421Z,62.41
2023-02-06T18:45:51.645Z,62.98
2023-02-06T18:48:55.499Z,62.81
2023-02-06T18:51:58.641Z,62.48
2023-02-06T18:55:02.023Z,62.37
2023-02-06T18:58:06.272Z,62.39
2023-02-06T19:01:14.518Z,62.39
2023-02-06T19:04:19.368Z,62.37
2023-02-06T19:07:22.743Z,62.40
2023-02-06T19:10:26.349Z,62.43
2023-02-06T19:13:29.597Z,62.47
2023-02-06T19:16:34.265Z,62.47
2023-02-06T19:19:37.480Z,62.46
2023-02-06T19:22:40.669Z,62.52
2023-02-06T19:25:43.824Z,62.54
2023-02-06T19:28:47.248Z,62.53
2023-02-06T19:31:50.709Z,62.54
2023-02-06T19:34:53.829Z,62.53
2023-02-06T19:37:56.950Z,62.60
2023-02-06T19:41:15.006Z,62.75
2023-02-06T19:44:19.115Z,62.80
2023-02-06T19:47:22.980Z,62.69
2023-02-06T19:50:26.262Z,62.62
2023-02-06T19:53:32.913Z,62.55
2023-02-06T19:56:41.734Z,62.47
2023-02-06T19:59:45.229Z,62.51
2023-02-06T20:02:48.597Z,62.55
2023-02-06T20:05:51.873Z,62.56
2023-02-06T20:08:57.126Z,62.67
2023-02-06T20:12:00.570Z,62.69
2023-02-06T20:15:04.039Z,62.71
2023-02-06T20:18:07.286Z,62.63
2023-02-06T20:21:27.933Z,62.65
2023-02-06T20:24:32.497Z,62.61
2023-02-06T20:27:35.765Z,62.62
2023-02-06T20:30:39.429Z,62.54
2023-02-06T20:33:43.223Z,62.56
2023-02-06T20:36:47.495Z,62.50
2023-02-06T20:39:50.950Z,62.50
2023-02-06T20:42:57.141Z,62.60
2023-02-06T20:46:00.487Z,62.52
2023-02-06T20:49:09.402Z,62.52
2023-02-06T20:52:12.907Z,62.55
2023-02-06T20:55:16.208Z,62.59
2023-02-06T20:58:20.475Z,62.63
2023-02-06T21:01:27.144Z,62.63
2023-02-06T21:04:33.950Z,62.66
2023-02-06T21:11:09.594Z,62.55
2023-02-06T21:14:13.763Z,62.60
2023-02-06T21:17:17.042Z,62.63
2023-02-06T21:20:20.403Z,62.67
2023-02-06T21:23:24.839Z,62.68
2023-02-06T21:26:28.874Z,62.63
2023-02-06T21:29:32.180Z,62.63
2023-02-06T21:32:35.477Z,62.63
2023-02-06T21:35:40.490Z,62.62
2023-02-06T21:38:44.313Z,62.60
2023-02-06T21:41:51.806Z,62.59
2023-02-06T21:44:55.108Z,62.63
2023-02-06T21:47:58.295Z,62.60
2023-02-06T21:51:21.071Z,62.56
2023-02-06T21:54:24.870Z,62.63
2023-02-06T21:57:28.035Z,62.65
2023-02-06T22:00:31.202Z,62.63
2023-02-06T22:03:34.449Z,62.63
2023-02-06T22:06:38.417Z,62.68
2023-02-06T22:09:41.691Z,62.71
2023-02-06T22:12:48.962Z,62.72
2023-02-06T22:15:52.265Z,62.60
2023-02-06T22:18:56.456Z,62.55
2023-02-06T22:21:59.548Z,62.49
2023-02-06T22:25:02.850Z,62.40
2023-02-06T22:28:06.030Z,62.42
2023-02-06T22:31:13.027Z,62.44
2023-02-06T22:34:18.842Z,62.47
2023-02-06T22:37:22.229Z,62.41
2023-02-06T22:40:25.328Z,62.46
2023-02-06T22:43:29.827Z,62.51
2023-02-06T22:46:37.545Z,62.50
2023-02-06T22:49:40.890Z,62.53
2023-02-06T22:53:02.627Z,62.44
2023-02-06T22:56:29.644Z,62.44
2023-02-06T22:59:32.792Z,62.54
2023-02-06T23:02:37.667Z,62.59
2023-02-06T23:05:41.097Z,62.63
2023-02-06T23:08:45.081Z,62.67
2023-02-06T23:11:49.024Z,62.66
2023-02-06T23:14:52.215Z,62.71
2023-02-06T23:17:55.571Z,62.68
2023-02-06T23:21:02.376Z,62.65
2023-02-06T23:24:07.249Z,62.57
2023-02-06T23:27:10.424Z,62.59
2023-02-06T23:30:13.843Z,62.58
2023-02-06T23:33:17.257Z,62.62
2023-02-06T23:36:22.109Z,62.69
2023-02-06T23:39:25.319Z,62.77
2023-02-06T23:42:29.353Z,62.74
2023-02-06T23:45:33.539Z,62.69
2023-02-06T23:48:39.114Z,62.75
2023-02-06T23:51:42.291Z,62.75
2023-02-06T23:54:45.554Z,62.76
2023-02-06T23:57:48.819Z,62.84
